Buckman, Minnesota
Current Conditions -  °F | °C
As of 9:17 PM on Monday 20 Oct 2014 (Local Time) from KLXL Reporting Station
Clear Clear  
Wind Chill: 45°   Ceiling: Unl
Heat Index: 45°   Visibility: 10mi
Dew Point: 37°   Wind: 3mph
Humidity: 76%   Direction: 70°ENE
Pressure: 30.07"   Gusts: NA
Location:  45.9°N, 94.09°W
Report Text: KLXL 210217Z AUTO 07003KT 10SM CLR 07/03 A3007 RMK AO2
Loading
Personal Weather Stations






























Interactive Weather Map
Tropical Storm Tracking
New forecast layout! Learn more

10-Day Weather Forecast

Advertisements
Track Severe Weather on mobile